Industry, Illinois
Current Conditions -  °F | °C
As of 1:55 AM on Monday 24 Nov 2014 (Local Time) from KMQB Reporting Station
Overcast Overcast  
Wind Chill: 30°   Ceiling: 700
Heat Index: 40°   Visibility: 7mi
Dew Point: 39°   Wind: 22mph
Humidity: 97%   Direction: 310°NW
Pressure: 29.24"   Gusts: 28mph
Location:  40.33°N, 90.61°W
Report Text: KMQB 240755Z AUTO 31019G24KT 7SM BKN007 OVC013 05/04 A2924 RMK AO2 T00450041
Loading
Personal Weather Stations






























Interactive Weather Map New forecast layout! Learn more

10-Day Weather Forecast

Advertisements
Track Severe Weather on mobile